Time;durP1;ratioP1;P1;durP2;ratioP2;P2;SDS_P1;SDS_P2;PMS_P1;PMS_P2;Temp;Humidity;BMP_temperature;BMP_pressure;BME280_temperature;BME280_humidity;BME280_pressure;Samples;Min_cycle;Max_cycle;Signal;HPM_P1;HPM_P2
2022/11/23 00:01:16;;;;;;;;;;;;;;;14.98;47.33;97806.91;5030946;28;19986;-79
2022/11/23 00:03:42;;;;;;;;;;;;;;;15.01;47.36;97803.16;5014467;28;19924;-81
2022/11/23 00:06:07;;;;;;;;;;;;;;;15.00;47.51;97802.31;4994733;28;19922;-80
2022/11/23 00:08:32;;;;;;;;;;;;;;;14.98;47.50;97809.53;5010197;28;19917;-80
2022/11/23 00:10:58;;;;;;;;;;;;;;;14.99;47.40;97818.25;5010728;28;19921;-80
2022/11/23 00:13:23;;;;;;;;;;;;;;;14.97;47.57;97805.25;5010898;28;20330;-80
2022/11/23 00:15:48;;;;;;;;;;;;;;;14.97;47.65;97797.38;5011221;28;19918;-80
2022/11/23 00:18:14;;;;;;;;;;;;;;;14.97;47.79;97797.38;5011179;28;20004;-78
2022/11/23 00:20:39;;;;;;;;;;;;;;;14.97;47.88;97783.44;5011412;28;20008;-79
2022/11/23 00:23:04;;;;;;;;;;;;;;;14.96;47.89;97774.75;5011085;28;19922;-80
2022/11/23 00:25:30;;;;;;;;;;;;;;;14.97;47.91;97779.00;5012051;28;19921;-79
2022/11/23 00:27:55;;;;;;;;;;;;;;;14.97;47.99;97776.34;4994667;28;19918;-79
2022/11/23 00:30:20;;;;;;;;;;;;;;;14.98;48.16;97761.44;5012498;28;19921;-80
2022/11/23 00:32:46;;;;;;;;;;;;;;;14.98;48.47;97771.94;4995005;28;19922;-81
2022/11/23 00:35:11;;;;;;;;;;;;;;;14.96;48.83;97773.91;4998658;28;19924;-82
2022/11/23 00:37:36;;;;;;;;;;;;;;;14.93;49.26;97772.44;4998809;28;19925;-83
2022/11/23 00:40:02;;;;;;;;;;;;;;;14.91;49.46;97763.09;4998843;28;19917;-82
2022/11/23 00:42:27;;;;;;;;;;;;;;;14.91;49.92;97758.66;5015295;28;20358;-82
2022/11/23 00:44:52;;;;;;;;;;;;;;;14.89;50.21;97768.50;4998752;28;19921;-83
2022/11/23 00:47:18;;;;;;;;;;;;;;;14.87;50.46;97767.88;5015694;28;20001;-81
2022/11/23 00:49:43;;;;;;;;;;;;;;;14.85;50.81;97754.09;4998387;28;20317;-81
2022/11/23 00:52:08;;;;;;;;;;;;;;;14.84;51.13;97753.25;5014695;28;20380;-82
2022/11/23 00:54:33;;;;;;;;;;;;;;;14.82;51.51;97749.97;5015666;28;19980;-82
2022/11/23 00:56:59;;;;;;;;;;;;;;;14.82;51.54;97757.84;5016181;28;19967;-81
2022/11/23 00:59:24;;;;;;;;;;;;;;;14.81;51.75;97755.41;4997638;28;19964;-82
2022/11/23 01:01:49;;;;;;;;;;;;;;;14.82;52.24;97751.78;5014388;28;19918;-82
2022/11/23 01:04:15;;;;;;;;;;;;;;;14.81;52.18;97747.50;4997093;28;19967;-84
2022/11/23 01:06:40;;;;;;;;;;;;;;;14.81;52.26;97747.50;5014244;28;19917;-82
2022/11/23 01:09:07;;;;;;;;;;;;;;;14.80;52.57;97738.81;5014218;28;19983;-84
2022/11/23 01:11:33;;;;;;;;;;;;;;;14.81;52.63;97747.50;4996860;28;20396;-83
2022/11/23 01:13:58;;;;;;;;;;;;;;;14.79;52.92;97744.25;5014101;28;19921;-83
2022/11/23 01:16:24;;;;;;;;;;;;;;;14.79;53.04;97728.47;4997360;28;20281;-82
2022/11/23 01:18:53;;;;;;;;;;;;;;;14.79;52.98;97720.59;5014034;28;19967;-83
2022/11/23 01:21:18;;;;;;;;;;;;;;;14.79;53.10;97705.66;5014938;28;19983;-82
2022/11/23 01:23:44;;;;;;;;;;;;;;;14.80;53.37;97701.19;4993642;28;20012;-82
2022/11/23 01:26:09;;;;;;;;;;;;;;;14.78;53.39;97703.19;5003754;28;20014;-86
2022/11/23 01:28:35;;;;;;;;;;;;;;;14.77;53.56;97696.28;4986564;28;19940;-87
2022/11/23 01:31:07;;;;;;;;;;;;;;;14.77;53.62;97697.13;5002016;28;19949;-86
2022/11/23 01:33:33;;;;;;;;;;;;;;;14.77;53.58;97683.16;4986177;28;19918;-87
2022/11/23 01:35:58;;;;;;;;;;;;;;;14.76;53.87;97694.66;5003329;28;19921;-85
2022/11/23 01:38:23;;;;;;;;;;;;;;;14.76;53.96;97692.03;5004989;28;19918;-84
2022/11/23 01:40:48;;;;;;;;;;;;;;;14.74;53.97;97692.22;4984880;28;19922;-85
2022/11/23 01:43:15;;;;;;;;;;;;;;;14.74;54.19;97697.47;4995389;28;19926;-86
2022/11/23 01:45:52;;;;;;;;;;;;;;;14.73;54.14;97690.56;4997363;28;20459;-85
2022/11/23 01:48:22;;;;;;;;;;;;;;;14.71;54.36;97682.03;5014826;28;19917;-86
2022/11/23 01:50:48;;;;;;;;;;;;;;;14.68;54.58;97668.44;4997827;28;19918;-85
2022/11/23 01:53:13;;;;;;;;;;;;;;;14.67;54.59;97664.16;5013874;28;19925;-85
2022/11/23 01:55:39;;;;;;;;;;;;;;;14.64;54.79;97666.13;5013812;28;20024;-86
2022/11/23 01:58:04;;;;;;;;;;;;;;;14.61;55.04;97655.97;5013524;28;20304;-84
2022/11/23 02:00:29;;;;;;;;;;;;;;;14.61;54.97;97655.97;5014656;28;19918;-84
2022/11/23 02:02:55;;;;;;;;;;;;;;;14.61;54.98;97658.59;5014903;28;19917;-84
2022/11/23 02:05:21;;;;;;;;;;;;;;;14.61;55.13;97655.97;4996985;28;20008;-84
2022/11/23 02:07:47;;;;;;;;;;;;;;;14.62;55.13;97652.34;5014856;28;20285;-84
2022/11/23 02:10:12;;;;;;;;;;;;;;;14.65;55.12;97651.19;5013463;28;20003;-84
2022/11/23 02:12:37;;;;;;;;;;;;;;;14.64;55.19;97655.63;5013291;28;19928;-84
2022/11/23 02:15:03;;;;;;;;;;;;;;;14.64;55.33;97645.13;5013150;28;19917;-85
2022/11/23 02:17:28;;;;;;;;;;;;;;;14.65;55.34;97636.25;4996472;28;19921;-85
2022/11/23 02:19:53;;;;;;;;;;;;;;;14.64;55.48;97637.25;5014034;28;20316;-86
2022/11/23 02:22:21;;;;;;;;;;;;;;;14.62;55.52;97622.63;5014102;28;19921;-85
2022/11/23 02:24:48;;;;;;;;;;;;;;;14.63;55.71;97622.47;5012955;28;19976;-85
2022/11/23 02:27:13;;;;;;;;;;;;;;;14.64;55.66;97615.41;5013395;28;20012;-86
2022/11/23 02:29:38;;;;;;;;;;;;;;;14.64;55.69;97608.34;5014210;28;19963;-85
2022/11/23 02:32:04;;;;;;;;;;;;;;;14.63;55.63;97611.16;5012955;28;19957;-85
2022/11/23 02:34:29;;;;;;;;;;;;;;;14.63;55.81;97598.03;5014513;28;20365;-85
2022/11/23 02:36:55;;;;;;;;;;;;;;;14.62;55.80;97594.56;4996475;28;19984;-85
2022/11/23 02:39:23;;;;;;;;;;;;;;;14.62;55.84;97586.69;4996405;28;19917;-85
2022/11/23 02:41:49;;;;;;;;;;;;;;;14.64;55.91;97583.88;5016067;28;19964;-84
2022/11/23 02:44:24;;;;;;;;;;;;;;;14.63;56.07;97564.69;5014919;28;19929;-85
2022/11/23 02:46:49;;;;;;;;;;;;;;;14.63;55.89;97577.81;4998636;28;19929;-85
2022/11/23 02:49:14;;;;;;;;;;;;;;;14.64;55.97;97582.09;5009118;28;19922;-85
2022/11/23 02:51:40;;;;;;;;;;;;;;;14.66;56.18;97579.28;4994821;28;19918;-84
2022/11/23 02:54:05;;;;;;;;;;;;;;;14.64;56.27;97566.34;4994646;28;20381;-84
2022/11/23 02:56:30;;;;;;;;;;;;;;;14.64;56.34;97566.34;4975342;28;19918;-85
2022/11/23 02:58:56;;;;;;;;;;;;;;;14.63;56.43;97564.69;4976396;28;20305;-86
2022/11/23 03:01:21;;;;;;;;;;;;;;;14.63;56.29;97559.44;4976746;28;19928;-86
2022/11/23 03:03:46;;;;;;;;;;;;;;;14.64;56.34;97563.72;4976840;28;20011;-86
2022/11/23 03:06:12;;;;;;;;;;;;;;;14.63;56.51;97554.19;4976883;28;20005;-85
2022/11/23 03:08:37;;;;;;;;;;;;;;;14.65;56.44;97551.38;5009972;28;19943;-85
2022/11/23 03:11:02;;;;;;;;;;;;;;;14.65;56.41;97552.19;4995748;28;19929;-86
2022/11/23 03:13:28;;;;;;;;;;;;;;;14.65;56.50;97551.38;5013812;28;19918;-85
2022/11/23 03:15:56;;;;;;;;;;;;;;;14.65;56.65;97552.19;5012497;28;19917;-86
2022/11/23 03:18:22;;;;;;;;;;;;;;;14.67;56.63;97556.47;5013689;28;19924;-87
2022/11/23 03:20:47;;;;;;;;;;;;;;;14.68;56.65;97566.00;5012353;28;19917;-86
2022/11/23 03:23:12;;;;;;;;;;;;;;;14.69;56.62;97573.69;5012225;28;20377;-85
2022/11/23 03:25:37;;;;;;;;;;;;;;;14.69;56.83;97580.75;4995814;28;20004;-85
2022/11/23 03:28:03;;;;;;;;;;;;;;;14.69;56.86;97557.09;5012283;28;19917;-85
2022/11/23 03:30:29;;;;;;;;;;;;;;;14.70;56.97;97562.19;5012128;28;20011;-85
2022/11/23 03:32:55;;;;;;;;;;;;;;;14.71;57.03;97557.78;5012396;28;19917;-85
2022/11/23 03:35:20;;;;;;;;;;;;;;;14.72;56.80;97554.97;5013505;28;19918;-93
2022/11/23 03:37:45;;;;;;;;;;;;;;;14.72;56.90;97554.97;5012976;28;19940;-83
2022/11/23 03:40:11;;;;;;;;;;;;;;;14.74;57.11;97562.69;4995283;28;19918;-80
2022/11/23 03:42:38;;;;;;;;;;;;;;;14.76;57.05;97558.06;4995696;28;19975;-80
2022/11/23 03:45:03;;;;;;;;;;;;;;;14.76;56.96;97558.88;4994954;28;19929;-80
2022/11/23 03:47:29;;;;;;;;;;;;;;;14.77;56.98;97560.53;4994919;28;19924;-81
2022/11/23 03:49:54;;;;;;;;;;;;;;;14.78;56.90;97561.31;5012353;28;19956;-81
2022/11/23 03:52:19;;;;;;;;;;;;;;;14.79;56.93;97560.34;5011840;28;19924;-80
2022/11/23 03:54:45;;;;;;;;;;;;;;;14.80;56.95;97562.81;5011864;28;19917;-81
2022/11/23 03:57:11;;;;;;;;;;;;;;;14.80;57.05;97568.06;4995296;28;19921;-81
2022/11/23 03:59:36;;;;;;;;;;;;;;;14.81;57.15;97567.06;5012658;28;20356;-80
2022/11/23 04:02:01;;;;;;;;;;;;;;;14.82;57.06;97562.63;5013023;28;19940;-80
2022/11/23 04:04:27;;;;;;;;;;;;;;;14.84;57.05;97560.66;5012813;28;20008;-80
2022/11/23 04:06:52;;;;;;;;;;;;;;;14.83;57.08;97553.75;5011527;28;19924;-80
2022/11/23 04:09:17;;;;;;;;;;;;;;;14.82;56.97;97547.69;5011864;28;19921;-80
2022/11/23 04:11:42;;;;;;;;;;;;;;;14.83;57.17;97538.81;5011507;28;20280;-80
2022/11/23 04:14:08;;;;;;;;;;;;;;;14.84;57.30;97532.56;5011331;28;20312;-80
2022/11/23 04:16:33;;;;;;;;;;;;;;;14.83;57.46;97530.09;5012807;28;19918;-81
2022/11/23 04:18:58;;;;;;;;;;;;;;;14.84;57.27;97529.94;5007547;28;20419;-82
2022/11/23 04:21:24;;;;;;;;;;;;;;;14.83;57.36;97517.81;4959685;28;19972;-82
2022/11/23 04:23:49;;;;;;;;;;;;;;;14.84;57.46;97513.34;4975597;28;19988;-82
2022/11/23 04:26:14;;;;;;;;;;;;;;;14.84;57.37;97523.88;4975162;28;20384;-80
2022/11/23 04:28:39;;;;;;;;;;;;;;;14.84;57.46;97521.22;4974631;28;19921;-81
2022/11/23 04:31:05;;;;;;;;;;;;;;;14.86;57.45;97521.06;4989213;28;19929;-81
2022/11/23 04:33:30;;;;;;;;;;;;;;;14.87;57.39;97523.50;4994650;28;20376;-80
2022/11/23 04:35:56;;;;;;;;;;;;;;;14.87;57.49;97520.88;4995006;28;20454;-78
2022/11/23 04:38:21;;;;;;;;;;;;;;;14.88;57.56;97521.69;5012839;28;19918;-78
2022/11/23 04:40:47;;;;;;;;;;;;;;;14.87;57.55;97526.16;5011440;28;19928;-80
2022/11/23 04:43:12;;;;;;;;;;;;;;;14.88;57.65;97511.19;4994702;28;20373;-83
2022/11/23 04:45:38;;;;;;;;;;;;;;;14.87;57.50;97513.00;5010725;28;19968;-86
2022/11/23 04:48:04;;;;;;;;;;;;;;;14.87;57.68;97506.94;4994719;28;19918;-86
2022/11/23 04:50:29;;;;;;;;;;;;;;;14.86;57.72;97505.28;4994714;28;19961;-86
2022/11/23 04:52:54;;;;;;;;;;;;;;;14.86;57.63;97507.94;5012990;28;19918;-86
2022/11/23 04:55:20;;;;;;;;;;;;;;;14.84;57.85;97501.03;5008350;28;19921;-86
2022/11/23 04:57:45;;;;;;;;;;;;;;;14.84;57.84;97506.28;5013958;28;19943;-79
2022/11/23 05:00:11;;;;;;;;;;;;;;;14.91;63.37;97487.19;5031036;28;19925;-84
2022/11/23 05:02:37;;;;;;;;;;;;;;;15.10;63.16;97494.63;5042982;28;19917;-80
2022/11/23 05:05:02;;;;;;;;;;;;;;;15.11;62.10;97483.09;5032438;28;19923;-81
2022/11/23 05:07:27;;;;;;;;;;;;;;;15.04;62.01;97484.81;5013879;28;20395;-81
2022/11/23 05:09:52;;;;;;;;;;;;;;;15.01;61.68;97479.91;5012095;28;20079;-81
2022/11/23 05:12:18;;;;;;;;;;;;;;;14.99;61.48;97480.09;4994543;28;19928;-81
2022/11/23 05:14:43;;;;;;;;;;;;;;;15.00;61.40;97478.25;5011923;28;19924;-81
2022/11/23 05:17:08;;;;;;;;;;;;;;;15.04;61.23;97481.34;4994562;28;19918;-81
2022/11/23 05:19:34;;;;;;;;;;;;;;;15.17;64.18;97484.22;5013254;28;19918;-83
2022/11/23 05:21:59;;;;;;;;;;;;;;;15.18;63.05;97478.78;4998185;28;19924;-89
2022/11/23 05:24:24;;;;;;;;;;;;;;;15.16;62.58;97477.31;5015712;28;19921;-89
2022/11/23 05:26:50;;;;;;;;;;;;;;;15.13;62.23;97475.03;5015816;28;19924;-88
2022/11/23 05:29:15;;;;;;;;;;;;;;;15.13;62.02;97480.28;5014078;28;19917;-83
2022/11/23 05:31:40;;;;;;;;;;;;;;;15.15;63.30;97478.31;4997374;28;19950;-89
2022/11/23 05:34:05;;;;;;;;;;;;;;;15.16;62.72;97474.69;5014259;28;20347;-87
2022/11/23 05:36:31;;;;;;;;;;;;;;;15.15;62.51;97473.06;5014377;28;20381;-87
2022/11/23 05:38:56;;;;;;;;;;;;;;;15.14;62.41;97479.31;5013407;28;19968;-86
2022/11/23 05:41:22;;;;;;;;;;;;;;;15.37;65.86;97485.34;5015157;28;19918;-83
2022/11/23 05:43:47;;;;;;;;;;;;;;;15.41;64.32;97483.19;5015040;28;19984;-79
2022/11/23 05:46:12;;;;;;;;;;;;;;;15.41;63.67;97479.75;5015061;28;19928;-79
2022/11/23 05:48:38;;;;;;;;;;;;;;;15.39;63.03;97490.44;5015470;28;19918;-78
2022/11/23 05:51:03;;;;;;;;;;;;;;;15.36;62.66;97496.84;5015126;28;19940;-78
2022/11/23 05:53:29;;;;;;;;;;;;;;;15.36;62.32;97490.78;4997223;28;20392;-80
2022/11/23 05:55:57;;;;;;;;;;;;;;;15.35;61.92;97489.16;5013810;28;19957;-83
2022/11/23 05:58:23;;;;;;;;;;;;;;;15.33;61.85;97491.94;5013975;28;19968;-81
2022/11/23 06:00:48;;;;;;;;;;;;;;;15.32;61.78;97490.34;5013171;28;19922;-83
2022/11/23 06:03:13;;;;;;;;;;;;;;;15.32;61.63;97486.88;4997899;28;19917;-85
2022/11/23 06:05:38;;;;;;;;;;;;;;;15.30;61.27;97488.88;4997669;28;19921;-86
2022/11/23 06:08:04;;;;;;;;;;;;;;;15.31;61.19;97496.59;4997702;28;19972;-81
2022/11/23 06:10:29;;;;;;;;;;;;;;;15.30;61.04;97492.31;4997050;28;19921;-79
2022/11/23 06:12:54;;;;;;;;;;;;;;;15.30;61.01;97492.31;5012147;28;19972;-80
2022/11/23 06:15:20;;;;;;;;;;;;;;;15.31;60.94;97490.50;5013644;28;19925;-81
2022/11/23 06:17:45;;;;;;;;;;;;;;;15.32;60.82;97481.63;5013388;28;19925;-79
2022/11/23 06:20:11;;;;;;;;;;;;;;;15.32;60.78;97471.94;5013973;28;19918;-79
2022/11/23 06:22:36;;;;;;;;;;;;;;;15.34;60.57;97466.50;5013626;28;19921;-79
2022/11/23 06:25:01;;;;;;;;;;;;;;;15.34;60.35;97467.31;4995849;28;19925;-80
2022/11/23 06:27:27;;;;;;;;;;;;;;;15.37;60.31;97464.31;4996597;28;19963;-79
2022/11/23 06:29:52;;;;;;;;;;;;;;;15.37;60.44;97466.94;5013501;28;19957;-78
2022/11/23 06:32:17;;;;;;;;;;;;;;;15.41;60.29;97461.34;4995920;28;19918;-79
2022/11/23 06:34:43;;;;;;;;;;;;;;;15.41;60.18;97462.13;5013290;28;20293;-81
2022/11/23 06:37:08;;;;;;;;;;;;;;;15.41;60.11;97466.59;5013412;28;19965;-80
2022/11/23 06:39:34;;;;;;;;;;;;;;;15.41;60.27;97474.47;4996642;28;19975;-80
2022/11/23 06:41:59;;;;;;;;;;;;;;;15.43;60.24;97477.75;5012958;28;19917;-79
2022/11/23 06:44:25;;;;;;;;;;;;;;;15.44;60.34;97487.28;5014077;28;19922;-79
2022/11/23 06:46:50;;;;;;;;;;;;;;;15.44;60.24;97484.66;5012660;28;19920;-80
2022/11/23 06:49:18;;;;;;;;;;;;;;;15.46;60.21;97469.50;5013096;28;19917;-80
2022/11/23 06:51:44;;;;;;;;;;;;;;;15.47;60.13;97465.88;5013085;28;19921;-78
2022/11/23 06:54:09;;;;;;;;;;;;;;;15.48;60.11;97483.28;4989156;28;19980;-79
2022/11/23 06:56:34;;;;;;;;;;;;;;;15.49;60.29;97495.44;4960929;28;19918;-79
2022/11/23 06:59:00;;;;;;;;;;;;;;;15.50;60.20;97502.34;4977056;28;20348;-79
2022/11/23 07:01:25;;;;;;;;;;;;;;;15.50;60.26;97502.34;4977083;28;20373;-81
2022/11/23 07:03:50;;;;;;;;;;;;;;;15.51;60.43;97509.22;4976898;28;19921;-79
2022/11/23 07:06:15;;;;;;;;;;;;;;;15.52;60.36;97518.75;4960741;28;20356;-80
2022/11/23 07:08:42;;;;;;;;;;;;;;;15.51;60.51;97525.00;4994612;28;19976;-79
2022/11/23 07:11:08;;;;;;;;;;;;;;;15.53;60.39;97525.66;4976612;28;20408;-80
2022/11/23 07:13:33;;;;;;;;;;;;;;;15.55;60.50;97534.19;4976437;28;19918;-79
2022/11/23 07:15:59;;;;;;;;;;;;;;;15.57;60.54;97524.28;4976722;28;20290;-79
2022/11/23 07:18:24;;;;;;;;;;;;;;;15.58;60.53;97525.94;4976499;28;19925;-80
2022/11/23 07:20:50;;;;;;;;;;;;;;;15.59;60.38;97527.53;4960466;28;20380;-80
2022/11/23 07:23:15;;;;;;;;;;;;;;;15.62;60.30;97527.19;4976555;28;19929;-79
2022/11/23 07:25:40;;;;;;;;;;;;;;;15.64;60.39;97534.91;4976879;28;19917;-80
2022/11/23 07:28:06;;;;;;;;;;;;;;;15.65;60.42;97523.41;4977175;28;20289;-80
2022/11/23 07:30:31;;;;;;;;;;;;;;;15.67;60.50;97534.53;5004084;28;20356;-80
2022/11/23 07:33:03;;;;;;;;;;;;;;;15.68;60.51;97531.75;4995319;28;19943;-79
2022/11/23 07:35:29;;;;;;;;;;;;;;;15.69;60.50;97522.06;4995519;28;19987;-80
2022/11/23 07:37:54;;;;;;;;;;;;;;;15.70;60.42;97507.88;5012320;28;20339;-78
2022/11/23 07:40:19;;;;;;;;;;;;;;;15.73;60.53;97503.09;5012125;28;19924;-79
2022/11/23 07:42:45;;;;;;;;;;;;;;;15.76;60.46;97503.72;5011746;28;19929;-79
2022/11/23 07:45:10;;;;;;;;;;;;;;;15.78;60.44;97505.22;5011992;28;19933;-80
2022/11/23 07:47:35;;;;;;;;;;;;;;;15.78;60.46;97507.84;5012521;28;19924;-78
2022/11/23 07:50:01;;;;;;;;;;;;;;;15.80;60.42;97508.47;4995504;28;19917;-79
2022/11/23 07:52:26;;;;;;;;;;;;;;;15.82;60.38;97519.63;5012031;28;20016;-79
2022/11/23 07:54:51;;;;;;;;;;;;;;;15.84;60.82;97524.72;4995222;28;19989;-80
2022/11/23 07:57:17;;;;;;;;;;;;;;;15.86;60.51;97528.81;4995427;28;19932;-80
2022/11/23 07:59:42;;;;;;;;;;;;;;;15.89;60.50;97520.56;4995297;28;20311;-80
2022/11/23 08:02:09;;;;;;;;;;;;;;;15.93;60.60;97520.19;4994951;28;19917;-79
2022/11/23 08:04:34;;;;;;;;;;;;;;;15.96;60.58;97501.41;4995364;28;20302;-79
2022/11/23 08:07:01;;;;;;;;;;;;;;;16.00;60.53;97495.63;5012215;28;19918;-79
2022/11/23 08:09:26;;;;;;;;;;;;;;;16.04;60.42;97511.84;5011527;28;19917;-79
2022/11/23 08:11:52;;;;;;;;;;;;;;;16.05;60.38;97518.72;4994544;28;20420;-80
2022/11/23 08:14:17;;;;;;;;;;;;;;;16.04;60.62;97527.66;5011690;28;19923;-80
2022/11/23 08:16:42;;;;;;;;;;;;;;;16.05;60.55;97527.47;4995468;28;19917;-78
2022/11/23 08:19:07;;;;;;;;;;;;;;;16.08;60.45;97531.53;4994694;28;19917;-79
2022/11/23 08:21:33;;;;;;;;;;;;;;;16.07;60.41;97525.47;5012614;28;20403;-79
2022/11/23 08:23:58;;;;;;;;;;;;;;;16.08;60.27;97524.47;4995112;28;20330;-79
2022/11/23 08:26:23;;;;;;;;;;;;;;;16.09;60.10;97517.38;4994825;28;19918;-79
2022/11/23 08:28:49;;;;;;;;;;;;;;;16.10;60.29;97517.19;5011694;28;19925;-80
2022/11/23 08:31:14;;;;;;;;;;;;;;;16.13;60.36;97508.13;5011392;28;19925;-79
2022/11/23 08:33:39;;;;;;;;;;;;;;;16.15;60.05;97510.59;5011334;28;19918;-79
2022/11/23 08:36:05;;;;;;;;;;;;;;;16.17;60.08;97513.84;5011674;28;19924;-80
2022/11/23 08:38:31;;;;;;;;;;;;;;;16.19;59.94;97514.47;5012413;28;19940;-79
2022/11/23 08:41:00;;;;;;;;;;;;;;;16.19;60.12;97510.03;4994592;28;20014;-79
2022/11/23 08:43:25;;;;;;;;;;;;;;;16.25;60.02;97506.66;5010147;28;20000;-78
2022/11/23 08:45:54;;;;;;;;;;;;;;;16.31;59.98;97522.72;4959173;28;20021;-79
2022/11/23 08:48:19;;;;;;;;;;;;;;;16.32;59.75;97526.97;4959495;28;20023;-79
2022/11/23 08:50:45;;;;;;;;;;;;;;;16.31;59.82;97522.72;4975546;28;19953;-79
2022/11/23 08:53:10;;;;;;;;;;;;;;;16.32;59.80;97519.91;4975087;28;20030;-80
2022/11/23 08:55:35;;;;;;;;;;;;;;;16.36;59.77;97515.09;4977452;28;19917;-79
2022/11/23 08:58:01;;;;;;;;;;;;;;;16.38;59.70;97513.91;4979277;28;20381;-81
2022/11/23 09:00:26;;;;;;;;;;;;;;;16.41;59.97;97524.09;4962964;28;19922;-78
2022/11/23 09:02:51;;;;;;;;;;;;;;;16.44;59.29;97521.06;4962891;28;19977;-80
2022/11/23 09:05:17;;;;;;;;;;;;;;;16.48;59.38;97524.16;4962768;28;19984;-81
2022/11/23 09:07:42;;;;;;;;;;;;;;;16.52;59.30;97512.25;4962838;28;20000;-80
2022/11/23 09:10:08;;;;;;;;;;;;;;;16.58;59.22;97503.59;4984700;28;20320;-79
2022/11/23 09:12:33;;;;;;;;;;;;;;;16.64;59.30;97496.78;5034398;28;19921;-79
2022/11/23 09:14:58;;;;;;;;;;;;;;;16.70;59.10;97505.75;5017976;28;19985;-79
2022/11/23 09:17:24;;;;;;;;;;;;;;;16.74;58.97;97502.56;5017832;28;19924;-81
2022/11/23 09:19:49;;;;;;;;;;;;;;;16.77;59.17;97496.09;5017563;28;19917;-78
2022/11/23 09:22:14;;;;;;;;;;;;;;;16.79;58.92;97487.03;5017916;28;19917;-79
2022/11/23 09:24:40;;;;;;;;;;;;;;;16.85;58.87;97482.00;5035688;28;19924;-78
2022/11/23 09:27:05;;;;;;;;;;;;;;;16.89;58.85;97484.09;5017834;28;19924;-79
2022/11/23 09:29:30;;;;;;;;;;;;;;;16.89;59.14;97478.00;5018084;28;19924;-79
2022/11/23 09:31:56;;;;;;;;;;;;;;;16.89;59.05;97475.34;5034176;28;20383;-80
2022/11/23 09:34:21;;;;;;;;;;;;;;;16.92;58.90;97481.09;5017552;28;20010;-79
2022/11/23 09:36:47;;;;;;;;;;;;;;;16.94;58.71;97468.53;5035785;28;20384;-80
2022/11/23 09:39:12;;;;;;;;;;;;;;;16.96;58.59;97455.97;5035080;28;19917;-78
2022/11/23 09:41:50;;;;;;;;;;;;;;;16.99;58.27;97463.50;5035293;28;20008;-79
2022/11/23 09:44:33;;;;;;;;;;;;;;;17.03;58.39;97465.75;5035058;28;19921;-79
2022/11/23 09:47:02;;;;;;;;;;;;;;;17.05;58.34;97463.78;5017321;28;20020;-79
2022/11/23 09:49:32;;;;;;;;;;;;;;;17.06;58.39;97466.19;5017378;28;20324;-78
2022/11/23 09:51:57;;;;;;;;;;;;;;;17.07;58.30;97470.47;5018057;28;20319;-78
2022/11/23 09:54:23;;;;;;;;;;;;;;;17.09;58.25;97462.38;5035137;28;19924;-80
2022/11/23 09:56:50;;;;;;;;;;;;;;;17.12;58.26;97460.16;5017410;28;19923;-78
2022/11/23 09:59:35;;;;;;;;;;;;;;;17.17;57.91;97456.94;5002338;28;20076;-79
2022/11/23 10:02:00;;;;;;;;;;;;;;;17.24;58.10;97462.31;4916868;29;20434;-79
2022/11/23 10:04:28;;;;;;;;;;;;;;;17.27;57.63;97457.44;4900348;29;19923;-79
2022/11/23 10:06:55;;;;;;;;;;;;;;;17.25;57.74;97458.63;4884279;29;19919;-78
2022/11/23 10:09:24;;;;;;;;;;;;;;;17.26;57.82;97458.44;4885000;29;19926;-79
2022/11/23 10:11:52;;;;;;;;;;;;;;;17.28;57.52;97440.59;4916186;29;20009;-78
2022/11/23 10:14:17;;;;;;;;;;;;;;;17.32;57.68;97435.78;4900814;29;19933;-79
2022/11/23 10:16:48;;;;;;;;;;;;;;;17.36;57.54;97435.22;4916658;29;19919;-79
2022/11/23 10:19:13;;;;;;;;;;;;;;;17.43;57.34;97437.09;4900858;29;19926;-81
2022/11/23 10:21:42;;;;;;;;;;;;;;;17.46;57.40;97434.06;4916334;29;20310;-80
2022/11/23 10:24:07;;;;;;;;;;;;;;;17.50;57.20;97427.38;4885068;29;20031;-84
2022/11/23 10:26:37;;;;;;;;;;;;;;;17.53;57.24;97435.72;4900160;29;19981;-79
2022/11/23 10:29:08;;;;;;;;;;;;;;;17.60;56.96;97432.28;4884657;29;19919;-82
2022/11/23 10:31:34;;;;;;;;;;;;;;;17.64;56.79;97431.72;4900193;29;20401;-80
2022/11/23 10:34:12;;;;;;;;;;;;;;;17.67;56.89;97436.59;4884815;29;19919;-79
2022/11/23 10:36:38;;;;;;;;;;;;;;;17.71;56.89;97434.38;4884625;29;19923;-80
2022/11/23 10:39:09;;;;;;;;;;;;;;;17.73;56.95;97429.75;4922022;28;19918;-79
2022/11/23 10:41:34;;;;;;;;;;;;;;;17.80;56.88;97443.78;4977308;28;19936;-78
2022/11/23 10:43:59;;;;;;;;;;;;;;;17.83;56.81;97448.69;4976735;28;20012;-79
2022/11/23 10:46:35;;;;;;;;;;;;;;;17.85;56.68;97437.91;4977926;28;19922;-78
2022/11/23 10:49:20;;;;;;;;;;;;;;;17.86;56.90;97444.84;4977357;28;19918;-80
2022/11/23 10:51:58;;;;;;;;;;;;;;;17.90;56.67;97443.47;4977262;28;20305;-77
2022/11/23 10:54:34;;;;;;;;;;;;;;;17.92;56.61;97444.09;4976961;28;20449;-78
2022/11/23 10:57:00;;;;;;;;;;;;;;;17.97;56.54;97436.41;4960948;28;20385;-79
2022/11/23 10:59:26;;;;;;;;;;;;;;;18.03;55.98;97432.97;4960580;28;19918;-79
2022/11/23 11:01:58;;;;;;;;;;;;;;;18.16;55.83;97444.59;4976867;28;19972;-79
2022/11/23 11:04:24;;;;;;;;;;;;;;;18.23;55.53;97443.63;4960580;28;19918;-79
2022/11/23 11:06:50;;;;;;;;;;;;;;;18.27;55.46;97439.56;4976718;28;19918;-79
2022/11/23 11:09:18;;;;;;;;;;;;;;;18.34;55.22;97436.13;4976704;28;19917;-79
2022/11/23 11:11:44;;;;;;;;;;;;;;;18.37;55.18;97436.53;4960571;28;20383;-80
2022/11/23 11:14:16;;;;;;;;;;;;;;;18.42;55.01;97438.59;4982966;28;19949;-79
2022/11/23 11:16:51;;;;;;;;;;;;;;;18.41;55.18;97437.78;4995217;28;19921;-78
2022/11/23 11:19:26;;;;;;;;;;;;;;;18.40;55.08;97445.91;5012281;28;19917;-79
2022/11/23 11:21:52;;;;;;;;;;;;;;;18.38;55.07;97451.38;4995715;28;19917;-78
2022/11/23 11:24:19;;;;;;;;;;;;;;;18.35;55.15;97443.84;5012226;28;19979;-79
2022/11/23 11:26:51;;;;;;;;;;;;;;;18.33;55.11;97450.34;4995893;28;20349;-77
2022/11/23 11:29:42;;;;;;;;;;;;;;;18.33;55.33;97450.34;4995754;28;20012;-79
2022/11/23 11:32:13;;;;;;;;;;;;;;;18.32;55.29;97451.38;5009989;28;19917;-78
2022/11/23 11:34:48;;;;;;;;;;;;;;;18.41;54.89;97439.63;4995675;28;20419;-77
2022/11/23 11:37:16;;;;;;;;;;;;;;;18.63;54.60;97437.63;4995739;28;19918;-77
2022/11/23 11:39:49;;;;;;;;;;;;;;;18.86;54.04;97433.84;5012108;28;19918;-79
2022/11/23 11:42:35;;;;;;;;;;;;;;;19.07;53.75;97425.72;5011672;28;19917;-78
2022/11/23 11:45:01;;;;;;;;;;;;;;;19.34;53.19;97431.81;4994611;28;20051;-77
2022/11/23 11:47:30;;;;;;;;;;;;;;;19.52;52.65;97436.44;5012341;28;19977;-78
2022/11/23 11:49:56;;;;;;;;;;;;;;;19.63;52.67;97436.84;4995532;28;19955;-76
2022/11/23 11:52:27;;;;;;;;;;;;;;;19.73;52.20;97436.41;5011763;28;19921;-78
2022/11/23 11:54:55;;;;;;;;;;;;;;;19.79;51.81;97438.28;4995389;28;19937;-79
2022/11/23 11:57:41;;;;;;;;;;;;;;;19.82;51.70;97427.28;4995453;28;19941;-78
2022/11/23 12:00:09;;;;;;;;;;;;;;;19.77;51.74;97433.19;4995179;28;20381;-77
2022/11/23 12:02:53;;;;;;;;;;;;;;;19.71;52.07;97436.63;5011674;28;20059;-79
2022/11/23 12:05:22;;;;;;;;;;;;;;;19.65;51.99;97435.63;4995286;28;19968;-78
2022/11/23 12:07:50;;;;;;;;;;;;;;;19.59;52.11;97438.28;5013107;28;19925;-77
2022/11/23 12:10:27;;;;;;;;;;;;;;;19.47;52.19;97446.84;5012841;28;19975;-76
2022/11/23 12:12:55;;;;;;;;;;;;;;;19.38;52.34;97453.38;5012856;28;19921;-78
2022/11/23 12:15:21;;;;;;;;;;;;;;;19.24;52.50;97452.56;5011662;28;20372;-77
2022/11/23 12:17:47;;;;;;;;;;;;;;;19.13;52.67;97453.16;5011361;28;20332;-78
2022/11/23 12:20:27;;;;;;;;;;;;;;;19.03;53.12;97450.13;4995125;28;19924;-79
2022/11/23 12:23:00;;;;;;;;;;;;;;;18.92;53.35;97451.53;4995001;28;19924;-78
2022/11/23 12:25:25;;;;;;;;;;;;;;;18.81;53.43;97455.56;5011741;28;20298;-78
2022/11/23 12:27:51;;;;;;;;;;;;;;;18.70;53.86;97453.50;4995096;28;19969;-77
2022/11/23 12:30:20;;;;;;;;;;;;;;;18.60;53.99;97452.06;5005753;28;20012;-79
2022/11/23 12:32:49;;;;;;;;;;;;;;;18.54;54.16;97450.22;4963571;28;19922;-78
2022/11/23 12:35:14;;;;;;;;;;;;;;;18.53;54.17;97451.25;4979442;28;19918;-78
2022/11/23 12:38:09;;;;;;;;;;;;;;;18.53;54.27;97458.34;4979423;28;20397;-78
2022/11/23 12:40:46;;;;;;;;;;;;;;;18.55;54.17;97461.59;4902106;29;19926;-79
2022/11/23 12:43:13;;;;;;;;;;;;;;;18.56;54.14;97466.66;4886284;29;19978;-78
2022/11/23 12:45:57;;;;;;;;;;;;;;;18.58;53.92;97462.03;4886276;29;19928;-78